Rechercher aéroport 
image banner adimage banner adimage banner ad
image banner ad

12CL - Newton Field

Situé à Stratford, United States

ICAO - 12CL, IATA -

Données fournies par Airmate  

Information générale

Coordonnées: N36°9'25" W119°50'58"
Élévation : 194 feet MSL.
Variation magnétique : 15° East
Voir autres Aéroports à California

Données opérationnelles

Special qualification required
Heure actuelle UTC:
Heure actuelle locale:
Météo à : KNLC - Lemoore Nas (Reeves Fld) ( 22 km )
METAR: KNLC 020456Z AUTO 31010KT 10SM CLR 30/11 A2997 RMK AO2 SLP145 T03000106
TAF: TAF KNLC 0123/0223 VRB06KT 9999 FEW180 QNH2986INS TEMPO 0200/0206 22008KT T13/0213Z T43/0300Z FS30172
Voir NOTAMs / SUP AIP / TFR affectant cet aéroport [VIEW]
Fréquences de communication: [VIEW]

Pistes:

Identifiant RWYQFULongueur (ft)Largeur (ft)SurfaceLDA (ft)
14279040ASPH
32279040ASPH

Coordonnées de l'aéroport

Adresse: Stratford United States

Vue satellite de 12CL